Time;durP1;ratioP1;P1;durP2;ratioP2;P2;SDS_P1;SDS_P2;PMS_P1;PMS_P2;Temp;Humidity;BMP_temperature;BMP_pressure;BME280_temperature;BME280_humidity;BME280_pressure;Samples;Min_cycle;Max_cycle;Signal;HPM_P1;HPM_P2
2022/05/31 00:01:51;;;;;;;1.07;0.90;;;9.80;76.80;;;;;;5111460;28;20658;-86
2022/05/31 00:04:18;;;;;;;1.33;1.10;;;9.90;77.10;;;;;;5097274;28;20682;-87
2022/05/31 00:06:45;;;;;;;1.88;1.35;;;9.90;79.50;;;;;;5109550;28;20692;-86
2022/05/31 00:09:13;;;;;;;1.73;1.03;;;10.20;79.00;;;;;;5109729;28;20187;-86
2022/05/31 00:11:43;;;;;;;0.90;0.90;;;9.80;80.00;;;;;;5093747;28;20630;-86
2022/05/31 00:14:13;;;;;;;0.77;0.77;;;9.80;81.70;;;;;;5099813;28;21302;-86
2022/05/31 00:16:42;;;;;;;0.77;0.77;;;9.70;81.70;;;;;;5112633;28;21253;-86
2022/05/31 00:19:09;;;;;;;1.00;0.67;;;9.70;82.50;;;;;;5093384;28;20635;-85
2022/05/31 00:21:42;;;;;;;2.08;1.52;;;9.60;82.60;;;;;;5092142;28;21180;-86
2022/05/31 00:24:16;;;;;;;1.40;0.90;;;9.50;83.10;;;;;;5113380;28;20278;-86
2022/05/31 00:26:46;;;;;;;0.77;0.77;;;9.50;83.20;;;;;;5105733;28;20629;-86
2022/05/31 00:29:13;;;;;;;1.23;1.13;;;9.80;81.70;;;;;;5107390;28;21225;-86
2022/05/31 00:31:49;;;;;;;1.40;1.10;;;9.50;81.80;;;;;;5108625;28;20190;-84
2022/05/31 00:34:18;;;;;;;1.10;1.00;;;9.50;81.50;;;;;;5093695;28;20228;-85
2022/05/31 00:36:49;;;;;;;1.70;1.30;;;9.50;82.10;;;;;;5110930;28;20232;-85
2022/05/31 00:39:17;;;;;;;1.05;0.95;;;9.50;81.80;;;;;;5112353;28;20195;-85
2022/05/31 00:41:57;;;;;;;0.60;0.60;;;9.40;81.40;;;;;;5104618;28;20201;-85
2022/05/31 00:44:29;;;;;;;0.85;0.85;;;9.40;82.00;;;;;;5091650;28;20218;-85
2022/05/31 00:47:01;;;;;;;0.93;0.93;;;9.40;81.40;;;;;;5103092;28;20191;-86
2022/05/31 00:49:33;;;;;;;1.35;1.00;;;9.30;80.60;;;;;;5113521;28;20748;-86
2022/05/31 00:52:06;;;;;;;1.42;0.77;;;9.40;80.60;;;;;;5100958;28;20594;-85
2022/05/31 00:54:38;;;;;;;0.80;0.80;;;9.40;81.40;;;;;;5104357;28;20194;-86
2022/05/31 00:57:07;;;;;;;1.00;0.70;;;9.30;81.50;;;;;;5097810;28;20230;-85
2022/05/31 00:59:50;;;;;;;0.95;0.95;;;9.30;81.60;;;;;;5094524;28;20547;-85
2022/05/31 01:02:19;;;;;;;0.60;0.60;;;9.30;81.10;;;;;;5094828;28;20197;-85
2022/05/31 01:04:50;;;;;;;3.15;1.50;;;9.10;81.70;;;;;;5092877;28;20207;-85
2022/05/31 01:07:18;;;;;;;0.75;0.75;;;9.40;83.00;;;;;;5105896;28;20207;-86
2022/05/31 01:09:45;;;;;;;2.83;1.20;;;9.30;82.90;;;;;;5096867;28;20267;-86
2022/05/31 01:12:16;;;;;;;1.02;0.82;;;9.20;81.70;;;;;;5103971;28;20206;-86
2022/05/31 01:14:43;;;;;;;0.88;0.88;;;9.10;82.90;;;;;;5112111;28;20223;-85
2022/05/31 01:17:15;;;;;;;2.22;1.83;;;10.30;81.60;;;;;;5102142;28;20251;-85
2022/05/31 01:19:59;;;;;;;1.42;1.33;;;9.10;82.70;;;;;;5112815;28;20201;-85
2022/05/31 01:22:37;;;;;;;1.25;1.15;;;9.10;82.10;;;;;;5113682;28;20198;-85
2022/05/31 01:25:25;;;;;;;1.63;1.50;;;8.90;81.40;;;;;;5114684;28;20236;-84
2022/05/31 01:28:02;;;;;;;0.90;0.90;;;8.90;81.60;;;;;;5099179;28;20220;-85
2022/05/31 01:30:32;;;;;;;0.85;0.70;;;9.00;82.40;;;;;;5107497;28;20290;-85
2022/05/31 01:33:09;;;;;;;1.95;1.15;;;8.90;82.00;;;;;;5112867;28;20222;-85
2022/05/31 01:35:38;;;;;;;0.77;0.77;;;;;;;;;;5112842;28;20220;-85
2022/05/31 01:38:12;;;;;;;1.38;1.27;;;9.10;80.90;;;;;;5114078;28;20639;-86
2022/05/31 01:40:46;;;;;;;0.70;0.70;;;8.90;82.70;;;;;;5104616;28;20194;-85
2022/05/31 01:43:13;;;;;;;1.42;1.35;;;8.90;82.90;;;;;;5101474;28;20195;-85
2022/05/31 01:45:48;;;;;;;1.30;1.15;;;8.90;83.50;;;;;;5093802;28;20226;-85
2022/05/31 01:48:17;;;;;;;1.30;1.20;;;8.90;83.50;;;;;;5106704;28;20288;-85
2022/05/31 01:50:46;;;;;;;2.25;1.17;;;8.90;84.70;;;;;;5105458;28;20289;-85
2022/05/31 01:53:17;;;;;;;2.17;1.50;;;8.90;84.30;;;;;;5103786;28;20192;-86
2022/05/31 01:55:48;;;;;;;1.33;1.23;;;8.90;86.40;;;;;;5113636;28;20627;-85
2022/05/31 01:58:19;;;;;;;1.10;1.05;;;9.00;84.30;;;;;;5113277;28;20257;-84
2022/05/31 02:00:46;;;;;;;0.93;0.77;;;9.20;82.40;;;;;;5113079;28;20195;-86
2022/05/31 02:03:16;;;;;;;1.65;1.55;;;9.00;82.10;;;;;;5101132;28;20669;-84
2022/05/31 02:05:47;;;;;;;1.33;0.95;;;8.90;83.40;;;;;;5112238;28;20206;-85
2022/05/31 02:08:18;;;;;;;1.42;1.33;;;8.90;83.40;;;;;;5108244;28;20303;-85
2022/05/31 02:10:46;;;;;;;1.15;1.02;;;8.90;84.50;;;;;;5107025;28;20199;-85
2022/05/31 02:13:13;;;;;;;1.10;0.98;;;8.80;84.90;;;;;;5106043;28;20202;-84
2022/05/31 02:15:41;;;;;;;0.77;0.60;;;8.90;85.20;;;;;;5114354;28;20255;-84
2022/05/31 02:18:08;;;;;;;2.85;1.30;;;8.90;84.30;;;;;;5112560;27;20214;-85
2022/05/31 02:20:37;;;;;;;0.95;0.73;;;8.80;83.50;;;;;;5114284;28;20202;-83
2022/05/31 02:23:05;;;;;;;1.30;1.27;;;8.80;84.40;;;;;;5102260;28;20195;-85
2022/05/31 02:25:33;;;;;;;0.88;0.88;;;8.60;84.90;;;;;;5104480;28;20247;-85
2022/05/31 02:28:00;;;;;;;1.42;1.20;;;8.60;85.10;;;;;;5096646;28;20203;-84
2022/05/31 02:30:27;;;;;;;2.50;1.33;;;8.60;86.50;;;;;;5096653;28;20202;-85
2022/05/31 02:32:54;;;;;;;1.00;0.90;;;8.50;86.20;;;;;;5103144;28;20263;-84
2022/05/31 02:35:21;;;;;;;0.90;0.90;;;8.40;86.80;;;;;;5113671;27;20744;-85
2022/05/31 02:37:47;;;;;;;1.35;0.98;;;8.00;85.70;;;;;;5101333;28;20210;-85
2022/05/31 02:40:14;;;;;;;1.10;1.10;;;8.60;86.00;;;;;;5108691;28;20194;-85
2022/05/31 02:42:43;;;;;;;3.72;1.67;;;8.50;85.60;;;;;;5109982;28;20229;-84
2022/05/31 02:45:11;;;;;;;0.80;0.80;;;8.60;85.60;;;;;;5094822;28;20708;-84
2022/05/31 02:47:39;;;;;;;1.45;1.35;;;8.50;86.60;;;;;;5097245;28;20201;-85
2022/05/31 02:50:07;;;;;;;0.95;0.70;;;8.40;86.90;;;;;;5115194;28;20221;-84
2022/05/31 02:52:35;;;;;;;0.82;0.82;;;8.30;87.70;;;;;;5101548;28;20198;-85
2022/05/31 02:55:01;;;;;;;1.23;1.17;;;8.10;88.30;;;;;;5115954;28;20193;-85
2022/05/31 02:57:28;;;;;;;1.30;0.82;;;8.20;89.10;;;;;;5112353;28;20269;-84
2022/05/31 02:59:57;;;;;;;1.33;1.25;;;8.30;89.40;;;;;;5111304;28;20191;-84
2022/05/31 03:02:24;;;;;;;0.98;0.88;;;8.40;89.70;;;;;;5098991;28;20223;-84
2022/05/31 03:04:51;;;;;;;3.28;1.42;;;8.40;89.60;;;;;;5095765;28;20191;-85
2022/05/31 03:07:18;;;;;;;1.20;1.10;;;8.40;88.80;;;;;;5096345;28;20222;-85
2022/05/31 03:09:45;;;;;;;1.20;1.05;;;8.40;87.60;;;;;;5112055;28;20190;-85
2022/05/31 03:12:16;;;;;;;1.00;0.63;;;8.30;87.90;;;;;;5110724;28;20282;-83
2022/05/31 03:14:46;;;;;;;1.88;1.67;;;8.30;88.60;;;;;;5093172;28;20226;-84
2022/05/31 03:17:19;;;;;;;0.88;0.88;;;8.30;89.50;;;;;;5103485;28;20210;-83
2022/05/31 03:19:50;;;;;;;1.20;0.90;;;8.40;90.00;;;;;;5112394;28;20236;-85
2022/05/31 03:22:21;;;;;;;1.90;1.00;;;8.30;89.10;;;;;;5100485;28;20289;-84
2022/05/31 03:24:53;;;;;;;2.05;0.90;;;8.30;90.10;;;;;;5093153;28;20214;-85
2022/05/31 03:27:20;;;;;;;0.88;0.88;;;8.20;90.10;;;;;;5102055;28;20222;-84
2022/05/31 03:29:48;;;;;;;1.33;1.23;;;8.20;89.90;;;;;;5116488;28;20604;-84
2022/05/31 03:32:18;;;;;;;1.17;1.17;;;8.30;88.10;;;;;;5113191;28;20283;-84
2022/05/31 03:34:45;;;;;;;1.30;1.20;;;8.40;87.60;;;;;;5116075;28;20202;-84
2022/05/31 03:37:12;;;;;;;1.25;1.15;;;8.80;87.80;;;;;;5112225;28;20214;-85
2022/05/31 03:39:39;;;;;;;1.02;0.98;;;8.20;90.20;;;;;;5111047;28;20199;-84
2022/05/31 03:42:07;;;;;;;1.50;1.40;;;8.40;90.20;;;;;;5105815;28;20191;-85
2022/05/31 03:44:34;;;;;;;1.63;1.10;;;8.40;90.50;;;;;;5109458;28;20194;-85
2022/05/31 03:47:03;;;;;;;1.33;1.20;;;8.30;91.20;;;;;;5113286;28;20200;-84
2022/05/31 03:49:31;;;;;;;1.38;1.27;;;8.30;91.70;;;;;;5110256;28;20524;-85
2022/05/31 03:51:59;;;;;;;1.83;1.67;;;8.60;92.00;;;;;;5111667;28;20197;-85
2022/05/31 03:54:26;;;;;;;1.70;1.60;;;;;;;;;;5110645;28;20573;-85
2022/05/31 03:56:53;;;;;;;1.95;1.67;;;8.50;91.80;;;;;;5111979;28;20209;-85
2022/05/31 03:59:20;;;;;;;0.75;0.75;;;8.40;91.40;;;;;;5109628;28;20279;-83
2022/05/31 04:01:47;;;;;;;0.80;0.80;;;8.40;92.40;;;;;;5097463;28;20189;-85
2022/05/31 04:04:14;;;;;;;1.60;1.13;;;8.30;92.10;;;;;;5093362;28;20244;-85
2022/05/31 04:06:42;;;;;;;2.15;1.67;;;8.30;92.20;;;;;;5101341;28;20201;-85
2022/05/31 04:09:09;;;;;;;1.83;1.20;;;8.50;92.10;;;;;;5099275;28;20640;-85
2022/05/31 04:11:36;;;;;;;1.70;0.80;;;8.60;92.20;;;;;;5111001;28;20222;-86
2022/05/31 04:14:03;;;;;;;2.88;1.42;;;8.10;91.70;;;;;;5099025;28;20216;-85
2022/05/31 04:16:30;;;;;;;2.03;1.92;;;8.20;91.50;;;;;;5101640;28;20202;-84
2022/05/31 04:18:57;;;;;;;0.80;0.80;;;8.30;91.10;;;;;;5101927;28;20221;-86
2022/05/31 04:21:24;;;;;;;1.33;1.23;;;8.20;90.80;;;;;;5115570;28;20202;-85
2022/05/31 04:24:02;;;;;;;2.15;1.63;;;8.30;90.90;;;;;;5107540;28;20210;-84
2022/05/31 04:26:31;;;;;;;1.23;1.13;;;8.30;91.20;;;;;;5096419;28;20215;-85
2022/05/31 04:28:59;;;;;;;1.63;1.40;;;8.30;91.80;;;;;;5113976;28;20248;-85
2022/05/31 04:31:26;;;;;;;1.80;1.23;;;9.50;92.10;;;;;;5107652;28;20198;-85
2022/05/31 04:33:53;;;;;;;1.35;1.25;;;8.60;92.10;;;;;;5100418;28;20193;-85
2022/05/31 04:36:22;;;;;;;1.33;1.23;;;8.80;92.30;;;;;;5115347;28;20670;-84
2022/05/31 04:38:49;;;;;;;2.40;2.05;;;8.90;91.60;;;;;;5099448;28;20222;-86
2022/05/31 04:41:20;;;;;;;1.55;1.10;;;8.70;91.10;;;;;;5106658;28;20635;-84
2022/05/31 04:43:47;;;;;;;2.72;1.85;;;8.70;91.30;;;;;;5103340;28;20187;-85
2022/05/31 04:46:16;;;;;;;4.10;2.20;;;8.80;91.50;;;;;;5110678;28;20751;-85
2022/05/31 04:48:44;;;;;;;1.40;1.20;;;8.70;91.70;;;;;;5114632;28;20561;-85
2022/05/31 04:51:11;;;;;;;0.70;0.70;;;8.90;92.20;;;;;;5100759;28;20206;-85
2022/05/31 04:53:38;;;;;;;1.30;1.20;;;9.00;92.20;;;;;;5103213;28;20225;-85
2022/05/31 04:56:09;;;;;;;1.67;1.00;;;9.10;92.00;;;;;;5120481;28;20276;-85
2022/05/31 04:58:39;;;;;;;1.33;1.23;;;9.40;91.70;;;;;;5119187;28;20317;-84
2022/05/31 05:01:07;;;;;;;0.93;0.93;;;9.40;91.80;;;;;;5118102;28;20214;-85
2022/05/31 05:03:35;;;;;;;1.70;1.20;;;9.80;90.20;;;;;;5117678;28;20217;-85
2022/05/31 05:06:03;;;;;;;3.30;1.30;;;9.80;89.60;;;;;;5099075;28;20195;-84
2022/05/31 05:08:30;;;;;;;2.00;1.60;;;10.00;88.00;;;;;;5108398;28;20694;-86
2022/05/31 05:11:00;;;;;;;1.50;1.40;;;10.00;87.10;;;;;;5115689;28;20658;-85
2022/05/31 05:13:27;;;;;;;1.33;1.30;;;10.20;85.90;;;;;;5106069;27;21031;-84
2022/05/31 05:15:55;;;;;;;1.53;1.43;;;10.40;86.20;;;;;;5101229;28;20615;-84
2022/05/31 05:18:23;;;;;;;1.70;1.60;;;10.50;85.10;;;;;;5108152;28;21358;-84
2022/05/31 05:20:50;;;;;;;1.10;1.10;;;10.60;84.00;;;;;;5114938;28;21050;-84
2022/05/31 05:23:17;;;;;;;2.07;1.77;;;10.80;80.80;;;;;;5097313;28;20620;-84
2022/05/31 05:25:48;;;;;;;1.43;1.33;;;10.90;79.70;;;;;;5115651;28;21072;-84
2022/05/31 05:31:01;;;;;;;2.00;1.40;;;11.10;79.90;;;;;;5116826;28;21025;-84
2022/05/31 05:33:29;;;;;;;1.40;1.13;;;11.40;79.50;;;;;;5114729;28;20617;-85
2022/05/31 05:35:57;;;;;;;1.00;1.00;;;11.60;78.80;;;;;;5102205;28;21244;-85
2022/05/31 05:38:24;;;;;;;0.97;0.97;;;11.40;78.80;;;;;;5106989;28;20702;-84
2022/05/31 05:40:51;;;;;;;1.30;1.20;;;11.70;79.30;;;;;;5109985;28;20624;-85
2022/05/31 05:43:18;;;;;;;1.57;1.47;;;11.80;77.20;;;;;;5117031;28;20604;-84
2022/05/31 05:45:45;;;;;;;0.97;0.97;;;11.90;76.30;;;;;;5118969;28;20632;-83
2022/05/31 05:48:13;;;;;;;1.10;1.00;;;11.90;76.80;;;;;;5119361;27;20616;-83
2022/05/31 05:50:40;;;;;;;1.17;1.00;;;12.00;77.10;;;;;;5101204;28;20689;-85
2022/05/31 05:53:09;;;;;;;0.90;0.90;;;12.00;76.60;;;;;;5098259;28;21182;-84
2022/05/31 05:55:37;;;;;;;1.80;1.50;;;12.00;77.30;;;;;;5116733;28;20808;-85
2022/05/31 05:58:08;;;;;;;3.30;1.90;;;12.00;77.90;;;;;;5108522;28;20214;-84
2022/05/31 06:00:38;;;;;;;1.53;1.43;;;12.00;76.50;;;;;;5112719;28;20630;-85
2022/05/31 06:03:11;;;;;;;2.90;2.03;;;12.00;77.50;;;;;;5120073;28;20614;-84
2022/05/31 06:05:40;;;;;;;1.23;1.23;;;12.00;78.00;;;;;;5116325;28;20639;-84
2022/05/31 06:08:12;;;;;;;1.30;1.20;;;12.20;76.20;;;;;;5118749;28;20635;-85
2022/05/31 06:10:45;;;;;;;1.40;1.20;;;12.40;74.50;;;;;;5118774;28;20621;-86
2022/05/31 06:13:16;;;;;;;1.13;1.03;;;12.50;74.80;;;;;;5119135;28;20636;-84
2022/05/31 06:15:48;;;;;;;1.37;1.27;;;12.60;74.20;;;;;;5118792;28;20603;-83
2022/05/31 06:18:18;;;;;;;3.30;1.23;;;12.50;74.10;;;;;;5121677;28;20666;-85
2022/05/31 06:20:50;;;;;;;1.17;1.07;;;12.60;74.50;;;;;;5117541;28;20654;-85
2022/05/31 06:23:17;;;;;;;1.43;1.33;;;12.70;75.00;;;;;;5116813;28;21020;-85
2022/05/31 06:25:44;;;;;;;1.40;1.30;;;12.60;73.90;;;;;;5116566;28;20646;-85
2022/05/31 06:28:11;;;;;;;1.57;1.47;;;12.70;74.50;;;;;;5117400;28;21183;-84
2022/05/31 06:30:38;;;;;;;1.50;1.10;;;12.90;74.70;;;;;;5118496;28;20619;-85
2022/05/31 06:33:06;;;;;;;1.43;1.33;;;13.00;74.90;;;;;;5118457;28;20626;-85
2022/05/31 06:35:33;;;;;;;1.50;1.40;;;13.10;72.90;;;;;;5114582;28;21009;-85
2022/05/31 06:38:02;;;;;;;1.00;0.90;;;13.20;74.90;;;;;;5117727;28;21277;-85
2022/05/31 06:40:29;;;;;;;2.77;1.53;;;13.30;75.10;;;;;;5116390;28;20623;-86
2022/05/31 06:42:57;;;;;;;3.70;1.37;;;13.40;73.50;;;;;;5119458;28;21330;-84
2022/05/31 06:45:24;;;;;;;1.40;1.30;;;13.50;73.40;;;;;;5114627;28;20604;-84
2022/05/31 06:47:51;;;;;;;2.23;2.10;;;13.70;72.80;;;;;;5112555;27;20608;-85
2022/05/31 06:50:18;;;;;;;1.87;1.40;;;13.80;71.30;;;;;;5106319;28;20632;-85
2022/05/31 06:58:15;;;;;;;1.27;1.17;;;14.00;72.10;;;;;;5119816;28;20754;-84
2022/05/31 07:00:42;;;;;;;1.40;1.30;;;14.10;72.00;;;;;;5118078;28;20657;-86
2022/05/31 07:03:09;;;;;;;2.67;1.17;;;14.20;71.50;;;;;;5121104;28;20650;-83
2022/05/31 07:05:38;;;;;;;1.03;1.00;;;14.30;70.40;;;;;;5119938;28;20611;-85
2022/05/31 07:08:05;;;;;;;1.30;1.20;;;14.40;70.80;;;;;;5119400;28;20620;-84
2022/05/31 07:10:33;;;;;;;1.20;1.20;;;14.50;70.90;;;;;;5120360;28;21230;-85
2022/05/31 07:13:00;;;;;;;1.33;1.27;;;14.60;71.00;;;;;;5112126;28;20621;-85
2022/05/31 07:15:31;;;;;;;1.70;1.50;;;14.80;69.60;;;;;;5098502;28;20613;-85
2022/05/31 07:17:59;;;;;;;1.13;0.93;;;14.80;69.50;;;;;;5115167;28;20651;-84
2022/05/31 07:20:26;;;;;;;0.77;0.77;;;15.20;71.00;;;;;;5114603;28;21054;-85
2022/05/31 07:22:53;;;;;;;1.30;1.20;;;15.10;70.90;;;;;;5108162;28;20988;-85
2022/05/31 07:25:20;;;;;;;1.90;1.50;;;15.10;70.40;;;;;;5115831;28;20612;-84
2022/05/31 07:27:50;;;;;;;1.30;1.20;;;15.30;70.10;;;;;;5118537;28;20628;-84
2022/05/31 07:30:17;;;;;;;1.27;1.17;;;15.50;68.70;;;;;;5114523;28;20621;-85
2022/05/31 07:32:44;;;;;;;1.10;1.00;;;15.70;68.90;;;;;;5097605;28;20613;-85
2022/05/31 07:35:12;;;;;;;0.90;0.90;;;15.70;69.20;;;;;;5098272;28;20625;-85
2022/05/31 07:37:39;;;;;;;0.90;0.90;;;15.80;68.60;;;;;;5115370;28;20616;-85
2022/05/31 07:40:07;;;;;;;2.40;1.10;;;16.10;69.10;;;;;;5114945;28;21108;-85
2022/05/31 07:42:34;;;;;;;0.90;0.83;;;16.30;68.50;;;;;;5097080;28;21201;-84
2022/05/31 07:45:02;;;;;;;0.50;0.50;;;16.30;67.20;;;;;;5099862;28;21269;-83
2022/05/31 07:47:30;;;;;;;1.10;1.00;;;16.30;66.40;;;;;;5115769;28;21024;-86
2022/05/31 07:49:57;;;;;;;0.90;0.57;;;16.60;65.80;;;;;;5112210;28;20654;-85
2022/05/31 07:52:24;;;;;;;1.70;0.70;;;16.60;64.50;;;;;;5096358;28;20666;-86
2022/05/31 07:54:51;;;;;;;1.30;1.20;;;16.60;64.90;;;;;;5116470;28;20619;-85
2022/05/31 08:00:04;;;;;;;0.80;0.80;;;16.50;67.70;;;;;;5113203;28;21111;-86
2022/05/31 08:02:31;;;;;;;0.90;0.90;;;16.80;64.70;;;;;;5108387;28;20639;-86
2022/05/31 08:04:58;;;;;;;1.00;0.90;;;16.60;65.80;;;;;;5092788;28;20617;-85
2022/05/31 08:07:25;;;;;;;1.07;0.90;;;16.70;65.00;;;;;;5097825;28;20613;-85
2022/05/31 08:09:52;;;;;;;1.30;1.07;;;16.60;65.90;;;;;;5093285;28;21510;-86
2022/05/31 08:12:19;;;;;;;0.80;0.80;;;16.90;65.80;;;;;;5106948;28;20622;-85
2022/05/31 08:14:45;;;;;;;0.73;0.73;;;17.10;62.80;;;;;;5094869;28;20670;-85
2022/05/31 08:17:14;;;;;;;1.07;1.00;;;17.30;61.70;;;;;;5104021;28;20730;-85
2022/05/31 08:19:41;;;;;;;1.43;1.30;;;17.40;61.80;;;;;;5092834;28;20667;-86
2022/05/31 08:22:07;;;;;;;1.10;1.10;;;17.50;63.20;;;;;;5103105;28;20612;-86
2022/05/31 08:24:35;;;;;;;1.30;0.87;;;17.50;61.60;;;;;;5095388;28;21247;-84
2022/05/31 08:27:02;;;;;;;2.10;0.90;;;17.70;60.60;;;;;;5095551;28;20644;-85
2022/05/31 08:29:30;;;;;;;0.83;0.83;;;17.90;61.80;;;;;;5093865;28;20627;-85
2022/05/31 08:31:59;;;;;;;0.87;0.87;;;18.00;61.80;;;;;;5105013;28;21562;-84
2022/05/31 08:34:32;;;;;;;1.20;1.10;;;18.20;61.60;;;;;;5116765;28;20605;-85
2022/05/31 08:36:59;;;;;;;1.33;1.10;;;18.30;63.40;;;;;;5114938;28;20634;-85
2022/05/31 08:39:26;;;;;;;1.13;0.97;;;18.20;60.80;;;;;;5116254;28;20642;-86
2022/05/31 08:42:04;;;;;;;0.80;0.80;;;18.40;62.60;;;;;;5115567;28;20658;-84
2022/05/31 08:44:36;;;;;;;0.87;0.77;;;18.80;59.00;;;;;;5100253;28;20625;-85
2022/05/31 08:47:17;;;;;;;1.10;1.10;;;18.80;61.00;;;;;;5102765;28;20735;-85
2022/05/31 08:53:16;;;;;;;0.60;0.60;;;18.80;60.80;;;;;;5102567;28;20680;-84
2022/05/31 08:58:36;;;;;;;1.37;1.13;;;19.60;59.20;;;;;;5097690;28;20633;-85
2022/05/31 09:01:05;;;;;;;1.07;1.07;;;19.80;58.10;;;;;;5097127;28;20632;-83
2022/05/31 09:03:41;;;;;;;0.90;0.90;;;20.00;59.10;;;;;;5097288;28;20719;-84
2022/05/31 09:06:13;;;;;;;1.17;1.10;;;20.20;57.90;;;;;;5103558;28;20623;-86
2022/05/31 09:08:44;;;;;;;0.90;0.90;;;20.20;57.00;;;;;;5107437;27;20652;-84
2022/05/31 09:11:17;;;;;;;0.70;0.70;;;20.20;57.40;;;;;;5093755;28;20628;-86
2022/05/31 09:13:51;;;;;;;3.03;1.00;;;20.40;57.60;;;;;;5094236;28;20648;-86
2022/05/31 09:16:27;;;;;;;0.80;0.80;;;20.40;57.80;;;;;;5098132;28;20649;-87
2022/05/31 09:18:59;;;;;;;0.87;0.87;;;20.60;56.40;;;;;;5101005;28;20658;-86
2022/05/31 09:21:37;;;;;;;1.40;1.30;;;20.70;57.50;;;;;;5114593;28;20639;-86
2022/05/31 09:24:07;;;;;;;0.77;0.63;;;20.70;57.20;;;;;;5094264;28;20620;-86
2022/05/31 09:27:00;;;;;;;1.10;1.00;;;20.70;56.60;;;;;;5102000;28;20647;-85
2022/05/31 09:29:34;;;;;;;0.97;0.97;;;20.70;57.50;;;;;;5102569;28;20639;-85
2022/05/31 09:32:10;;;;;;;1.30;1.20;;;20.70;56.90;;;;;;5105241;28;21267;-86
2022/05/31 09:35:04;;;;;;;1.03;1.00;;;20.60;56.10;;;;;;5099350;28;20681;-86
2022/05/31 09:37:54;;;;;;;1.10;1.10;;;21.00;56.00;;;;;;5101938;28;20727;-86
2022/05/31 09:40:37;;;;;;;0.83;0.83;;;21.30;55.30;;;;;;5098319;28;21032;-86
2022/05/31 09:43:09;;;;;;;1.47;0.90;;;21.20;54.10;;;;;;5103154;28;20628;-86
2022/05/31 09:45:43;;;;;;;1.30;1.20;;;20.90;56.60;;;;;;5100167;28;20677;-86
2022/05/31 09:48:09;;;;;;;0.90;0.90;;;21.10;56.40;;;;;;5106550;28;21051;-87
2022/05/31 09:50:36;;;;;;;1.00;1.00;;;21.00;57.00;;;;;;5102211;28;20615;-87
2022/05/31 09:57:05;;;;;;;1.10;1.10;;;21.10;57.70;;;;;;5095366;28;20621;-86
2022/05/31 09:58:39;;;;;;;1.20;1.10;;;21.50;55.20;;;;;;5103063;28;20627;-86
2022/05/31 10:01:21;;;;;;;1.23;1.13;;;21.60;55.50;;;;;;5092515;28;20732;-85
2022/05/31 10:03:54;;;;;;;1.00;0.90;;;21.80;55.70;;;;;;5094679;28;20709;-87
2022/05/31 10:06:23;;;;;;;0.90;0.90;;;22.00;54.20;;;;;;5105082;28;20656;-86
2022/05/31 10:08:54;;;;;;;0.97;0.97;;;22.10;55.00;;;;;;5104889;28;20669;-87
2022/05/31 10:11:25;;;;;;;0.87;0.87;;;21.70;53.20;;;;;;5109517;28;20666;-86
2022/05/31 10:13:58;;;;;;;0.70;0.70;;;21.30;51.50;;;;;;5093035;28;20621;-86
2022/05/31 10:16:27;;;;;;;1.33;1.20;;;20.80;51.90;;;;;;5105688;28;20631;-87
2022/05/31 10:18:57;;;;;;;1.77;1.20;;;20.80;54.10;;;;;;5102485;27;20725;-87
2022/05/31 10:21:34;;;;;;;0.90;0.90;;;20.90;53.80;;;;;;5102512;28;20649;-86
2022/05/31 10:24:07;;;;;;;1.63;1.53;;;20.80;52.50;;;;;;5109249;28;20696;-86
2022/05/31 10:26:39;;;;;;;0.87;0.87;;;20.80;53.00;;;;;;5110478;28;20624;-87
2022/05/31 10:29:15;;;;;;;1.03;0.90;;;20.70;51.90;;;;;;5111364;28;20706;-87
2022/05/31 10:31:45;;;;;;;1.10;1.03;;;20.70;51.10;;;;;;5091892;28;20673;-85
2022/05/31 10:34:33;;;;;;;0.83;0.83;;;20.90;52.20;;;;;;5100583;28;20732;-85
2022/05/31 10:37:02;;;;;;;1.00;1.00;;;21.40;53.10;;;;;;5112188;28;20693;-85
2022/05/31 10:39:32;;;;;;;4.20;0.83;;;21.50;52.50;;;;;;5113758;28;20749;-85
2022/05/31 10:42:02;;;;;;;1.10;1.10;;;21.60;50.90;;;;;;5111745;28;20668;-85
2022/05/31 10:44:33;;;;;;;0.53;0.53;;;21.90;50.80;;;;;;5110011;28;20611;-85
2022/05/31 10:47:06;;;;;;;1.13;1.10;;;21.90;51.30;;;;;;5097283;28;20632;-85
2022/05/31 10:49:33;;;;;;;0.87;0.87;;;21.80;54.10;;;;;;5111626;28;20624;-85
2022/05/31 10:52:07;;;;;;;0.77;0.77;;;21.30;54.20;;;;;;5090333;28;21174;-84
2022/05/31 10:54:48;;;;;;;1.50;1.40;;;21.20;55.20;;;;;;5091127;28;20682;-84
2022/05/31 10:57:29;;;;;;;1.10;1.10;;;21.70;57.20;;;;;;5108652;28;20631;-85
2022/05/31 11:00:08;;;;;;;1.23;1.20;;;21.80;54.60;;;;;;5111282;28;20750;-85
2022/05/31 11:03:01;;;;;;;0.80;0.80;;;21.60;56.10;;;;;;5106376;28;20656;-87
2022/05/31 11:05:37;;;;;;;1.70;1.60;;;22.20;55.10;;;;;;5090342;28;20609;-87
2022/05/31 11:14:07;;;;;;;1.50;1.30;;;22.40;53.40;;;;;;5103111;28;20641;-86
2022/05/31 11:16:48;;;;;;;1.00;1.00;;;22.40;54.90;;;;;;5091132;28;20632;-87
2022/05/31 11:19:36;;;;;;;1.50;1.40;;;22.60;53.10;;;;;;5090577;28;20616;-87
2022/05/31 11:22:20;;;;;;;1.40;1.30;;;22.60;52.70;;;;;;5091610;28;20738;-87
2022/05/31 11:24:57;;;;;;;1.77;1.50;;;22.70;54.10;;;;;;5091721;28;20616;-86
2022/05/31 11:27:39;;;;;;;1.47;1.40;;;22.80;52.90;;;;;;5101203;28;21376;-84
2022/05/31 11:30:19;;;;;;;1.27;1.17;;;23.00;54.60;;;;;;5090262;28;20715;-86
2022/05/31 11:33:10;;;;;;;1.10;1.00;;;23.70;54.00;;;;;;5105651;28;20707;-85
2022/05/31 11:35:51;;;;;;;1.40;1.30;;;23.90;52.30;;;;;;5109226;28;20684;-85
2022/05/31 11:38:23;;;;;;;1.33;1.23;;;24.20;54.50;;;;;;5098894;28;20677;-86
2022/05/31 11:41:02;;;;;;;1.80;1.10;;;24.00;53.00;;;;;;5104530;28;20667;-85
2022/05/31 11:44:06;;;;;;;1.40;1.30;;;24.10;53.90;;;;;;5101009;28;20686;-85
2022/05/31 11:46:39;;;;;;;1.60;1.50;;;24.70;52.50;;;;;;5105725;28;20615;-85
2022/05/31 11:49:08;;;;;;;1.37;1.27;;;24.40;51.10;;;;;;5109209;28;20620;-87
2022/05/31 11:51:46;;;;;;;0.83;0.83;;;24.10;50.30;;;;;;5110022;28;20620;-86
2022/05/31 11:54:33;;;;;;;1.30;1.20;;;24.40;51.60;;;;;;5092728;28;21285;-86
2022/05/31 11:57:13;;;;;;;1.60;1.50;;;25.10;49.80;;;;;;5097717;28;20612;-86
2022/05/31 11:59:47;;;;;;;1.17;1.17;;;26.10;48.70;;;;;;5108027;28;20753;-86
2022/05/31 12:02:21;;;;;;;1.10;1.00;;;27.40;47.00;;;;;;5108539;28;20709;-86
2022/05/31 12:04:52;;;;;;;1.50;1.30;;;28.10;46.90;;;;;;5109959;28;20748;-88
2022/05/31 12:07:24;;;;;;;1.10;1.03;;;28.10;46.10;;;;;;5106723;28;20643;-87
2022/05/31 12:09:57;;;;;;;1.30;1.20;;;28.20;43.60;;;;;;5100801;28;20616;-87
2022/05/31 12:12:30;;;;;;;0.97;0.97;;;27.50;45.20;;;;;;5099229;28;20616;-87
2022/05/31 12:15:06;;;;;;;1.27;1.13;;;26.20;47.50;;;;;;5110842;28;20638;-87
2022/05/31 12:17:40;;;;;;;1.13;1.10;;;24.80;46.50;;;;;;5098000;28;21038;-87
2022/05/31 12:20:16;;;;;;;1.57;1.43;;;24.20;48.10;;;;;;5096679;28;20732;-86
2022/05/31 12:22:52;;;;;;;1.30;1.23;;;24.00;48.60;;;;;;5108069;28;21179;-85
2022/05/31 12:25:26;;;;;;;1.00;0.97;;;23.00;47.20;;;;;;5107356;28;20620;-85
2022/05/31 12:28:05;;;;;;;0.87;0.87;;;22.70;49.10;;;;;;5109557;28;20672;-85
2022/05/31 12:30:43;;;;;;;1.23;1.13;;;22.60;50.00;;;;;;5104359;28;21564;-85
2022/05/31 12:33:37;;;;;;;1.00;0.90;;;23.10;51.00;;;;;;5090478;28;20632;-85
2022/05/31 12:36:05;;;;;;;4.73;1.10;;;22.90;48.40;;;;;;5109934;28;20616;-85
2022/05/31 12:38:54;;;;;;;1.00;0.90;;;23.20;48.40;;;;;;5095842;28;20642;-84
2022/05/31 12:41:40;;;;;;;0.90;0.90;;;23.20;48.60;;;;;;5103066;28;20659;-84
2022/05/31 12:44:14;;;;;;;0.83;0.83;;;24.20;49.60;;;;;;5110465;28;20628;-85
2022/05/31 12:46:45;;;;;;;1.60;1.50;;;23.40;46.30;;;;;;5109726;28;20647;-86
2022/05/31 12:49:23;;;;;;;2.03;1.53;;;23.20;47.60;;;;;;5110411;28;20628;-85
2022/05/31 12:55:59;;;;;;;1.20;1.10;;;23.90;47.10;;;;;;5090239;28;20623;-85
2022/05/31 12:58:47;;;;;;;0.80;0.80;;;25.80;48.20;;;;;;5080411;28;20644;-85
2022/05/31 13:01:34;;;;;;;1.63;0.80;;;26.80;44.70;;;;;;5109514;28;20724;-86
2022/05/31 13:04:20;;;;;;;0.97;0.87;;;26.20;44.60;;;;;;5104967;28;20655;-87
2022/05/31 13:07:19;;;;;;;0.87;0.87;;;26.90;43.80;;;;;;5107229;28;20654;-88
2022/05/31 13:09:47;;;;;;;1.20;1.10;;;27.80;43.40;;;;;;5064254;28;20637;-85
2022/05/31 13:20:44;;;;;;;1.17;1.00;;;29.40;41.40;;;;;;5091965;28;20671;-86
2022/05/31 13:23:17;;;;;;;1.47;1.30;;;28.30;40.20;;;;;;5101530;28;20657;-84
2022/05/31 13:25:54;;;;;;;1.30;0.87;;;27.50;40.90;;;;;;5112235;28;20616;-85
2022/05/31 13:28:27;;;;;;;0.90;0.90;;;27.50;40.50;;;;;;5098441;28;20640;-86
2022/05/31 13:30:58;;;;;;;1.00;1.00;;;28.10;41.50;;;;;;5092038;28;20616;-85
2022/05/31 13:33:27;;;;;;;1.20;1.10;;;28.50;39.50;;;;;;5107185;28;21519;-86
2022/05/31 13:36:02;;;;;;;0.80;0.70;;;27.60;39.90;;;;;;5111773;28;20714;-84
2022/05/31 13:38:33;;;;;;;0.80;0.80;;;27.50;43.00;;;;;;5107896;28;20635;-87
2022/05/31 13:41:03;;;;;;;1.17;1.10;;;28.30;41.70;;;;;;5112032;28;20781;-85
2022/05/31 13:43:35;;;;;;;1.10;1.00;;;27.90;39.90;;;;;;5095243;28;20727;-85
2022/05/31 13:46:16;;;;;;;0.80;0.80;;;26.60;39.40;;;;;;5092014;28;20600;-84
2022/05/31 13:48:49;;;;;;;1.20;1.10;;;26.00;41.50;;;;;;5095870;28;20625;-84
2022/05/31 13:51:23;;;;;;;1.03;0.90;;;26.60;40.90;;;;;;5111414;28;20981;-85